Time;durP1;ratioP1;P1;durP2;ratioP2;P2;SDS_P1;SDS_P2;PMS_P1;PMS_P2;Temp;Humidity;BMP_temperature;BMP_pressure;BME280_temperature;BME280_humidity;BME280_pressure;Samples;Min_cycle;Max_cycle;Signal;HPM_P1;HPM_P2
2023/06/03 00:02:03;;;;;;;4.47;1.48;;;;;;;;;;5111592;28;20158;-72
2023/06/03 00:04:29;;;;;;;7.78;2.08;;;;;;;;;;5111748;28;20368;-74
2023/06/03 00:06:58;;;;;;;2.65;1.38;;;;;;;;;;5111451;28;20019;-73
2023/06/03 00:09:23;;;;;;;2.90;1.00;;;;;;;;;;5112176;28;20479;-74
2023/06/03 00:11:49;;;;;;;4.03;1.65;;;;;;;;;;5113683;28;20016;-74
2023/06/03 00:14:14;;;;;;;2.13;1.60;;;;;;;;;;5114149;28;20020;-73
2023/06/03 00:16:42;;;;;;;4.18;1.25;;;;;;;;;;5114400;28;20066;-73
2023/06/03 00:19:07;;;;;;;5.95;1.40;;;;;;;;;;5113956;28;20591;-73
2023/06/03 00:21:34;;;;;;;6.88;1.48;;;;;;;;;;5114122;28;20076;-73
2023/06/03 00:23:59;;;;;;;2.38;1.20;;;;;;;;;;5113879;28;20051;-72
2023/06/03 00:26:25;;;;;;;6.93;1.60;;;;;;;;;;5113820;28;20372;-74
2023/06/03 00:28:51;;;;;;;3.40;1.73;;;;;;;;;;5113677;28;20020;-73
2023/06/03 00:31:16;;;;;;;3.30;1.17;;;;;;;;;;5113880;28;20581;-73
2023/06/03 00:33:41;;;;;;;1.80;1.30;;;;;;;;;;5113030;28;20046;-73
2023/06/03 00:36:06;;;;;;;5.82;2.15;;;;;;;;;;5114162;28;20031;-74
2023/06/03 00:38:32;;;;;;;5.50;1.48;;;;;;;;;;5114275;28;20052;-73
2023/06/03 00:40:57;;;;;;;3.70;1.67;;;;;;;;;;5114072;28;20028;-74
2023/06/03 00:43:22;;;;;;;1.83;1.10;;;;;;;;;;5114090;28;20106;-74
2023/06/03 00:45:47;;;;;;;2.90;2.05;;;;;;;;;;5113976;28;20026;-73
2023/06/03 00:48:13;;;;;;;4.70;1.58;;;;;;;;;;5113773;28;20026;-73
2023/06/03 00:50:39;;;;;;;4.65;2.00;;;;;;;;;;5113943;28;20020;-73
2023/06/03 00:53:04;;;;;;;3.30;1.42;;;;;;;;;;5113596;28;20456;-73
2023/06/03 00:55:30;;;;;;;5.85;1.63;;;;;;;;;;5112929;28;20015;-74
2023/06/03 00:57:55;;;;;;;4.03;1.40;;;;;;;;;;5113025;28;20080;-74
2023/06/03 01:00:20;;;;;;;7.57;2.33;;;;;;;;;;5113250;28;20028;-74
2023/06/03 01:02:46;;;;;;;3.28;1.55;;;;;;;;;;5113385;28;20030;-74
2023/06/03 01:05:12;;;;;;;4.82;1.27;;;;;;;;;;5095447;28;20015;-72
2023/06/03 01:07:43;;;;;;;4.82;1.50;;;;;;;;;;5094970;28;20023;-72
2023/06/03 01:10:27;;;;;;;4.47;2.03;;;;;;;;;;5113380;28;20015;-73
2023/06/03 01:13:11;;;;;;;6.00;1.60;;;;;;;;;;5113284;28;20683;-73
2023/06/03 01:15:38;;;;;;;3.20;1.55;;;;;;;;;;5113617;28;20360;-73
2023/06/03 01:18:05;;;;;;;5.65;1.77;;;;;;;;;;5113003;28;20036;-74
2023/06/03 01:20:31;;;;;;;3.00;1.75;;;;;;;;;;5112289;28;20027;-73
2023/06/03 01:23:00;;;;;;;6.85;1.88;;;;;;;;;;5111203;28;20033;-73
2023/06/03 01:25:28;;;;;;;5.25;1.65;;;;;;;;;;5110085;28;20016;-73
2023/06/03 01:27:57;;;;;;;5.10;1.98;;;;;;;;;;5109744;28;20024;-75
2023/06/03 01:30:22;;;;;;;7.97;1.35;;;;;;;;;;5108997;28;20112;-76
2023/06/03 01:32:48;;;;;;;2.90;1.48;;;;;;;;;;5108968;28;20114;-75
2023/06/03 01:35:14;;;;;;;3.83;1.92;;;;;;;;;;5108915;28;20102;-75
2023/06/03 01:37:40;;;;;;;2.83;1.30;;;;;;;;;;5110139;28;20012;-76
2023/06/03 01:40:07;;;;;;;5.97;1.77;;;;;;;;;;5109809;28;20035;-76
2023/06/03 01:42:32;;;;;;;3.80;1.52;;;;;;;;;;5109990;28;20024;-76
2023/06/03 01:44:58;;;;;;;3.63;1.60;;;;;;;;;;5112953;28;20016;-76
2023/06/03 01:47:23;;;;;;;6.00;2.28;;;;;;;;;;5115035;28;20112;-74
2023/06/03 01:49:48;;;;;;;4.07;1.63;;;;;;;;;;5114583;28;20019;-75
2023/06/03 01:52:14;;;;;;;2.05;1.08;;;;;;;;;;5114288;28;20015;-75
2023/06/03 01:54:39;;;;;;;3.85;1.65;;;;;;;;;;5115467;28;20031;-75
2023/06/03 01:57:05;;;;;;;5.85;1.70;;;;;;;;;;5116607;28;20019;-75
2023/06/03 01:59:30;;;;;;;3.97;1.58;;;;;;;;;;5116910;28;20369;-75
2023/06/03 02:01:57;;;;;;;2.75;1.60;;;;;;;;;;5116644;28;20050;-74
2023/06/03 02:04:23;;;;;;;3.97;1.77;;;;;;;;;;5116371;28;20016;-76
2023/06/03 02:07:01;;;;;;;4.28;2.00;;;;;;;;;;5116380;28;20019;-75
2023/06/03 02:09:28;;;;;;;6.50;2.47;;;;;;;;;;5116282;28;20435;-75
2023/06/03 02:11:54;;;;;;;5.15;1.90;;;;;;;;;;5097980;28;20084;-76
2023/06/03 02:14:19;;;;;;;4.72;2.30;;;;;;;;;;5116139;28;20019;-76
2023/06/03 02:16:45;;;;;;;3.40;1.70;;;;;;;;;;5116343;28;20007;-76
2023/06/03 02:19:11;;;;;;;6.72;1.85;;;;;;;;;;5116046;28;20027;-76
2023/06/03 02:21:38;;;;;;;3.10;1.27;;;;;;;;;;5116133;28;20072;-76
2023/06/03 02:24:05;;;;;;;9.55;1.90;;;;;;;;;;5115852;28;20095;-75
2023/06/03 02:26:30;;;;;;;3.05;1.70;;;;;;;;;;5116140;28;20019;-75
2023/06/03 02:28:56;;;;;;;3.17;1.63;;;;;;;;;;5115675;28;20019;-75
2023/06/03 02:31:21;;;;;;;4.00;1.45;;;;;;;;;;5115763;28;20020;-76
2023/06/03 02:33:47;;;;;;;4.50;1.85;;;;;;;;;;5115640;28;20020;-76
2023/06/03 02:36:14;;;;;;;2.60;1.30;;;;;;;;;;5097389;28;20034;-74
2023/06/03 02:38:39;;;;;;;4.35;1.27;;;;;;;;;;5115477;28;20019;-75
2023/06/03 02:41:05;;;;;;;6.72;1.30;;;;;;;;;;5115766;28;20045;-75
2023/06/03 02:43:30;;;;;;;3.55;1.80;;;;;;;;;;5115841;28;20043;-75
2023/06/03 02:45:55;;;;;;;3.80;1.77;;;;;;;;;;5097211;28;20048;-75
2023/06/03 02:48:20;;;;;;;9.57;2.30;;;;;;;;;;5115366;28;20474;-75
2023/06/03 02:50:46;;;;;;;2.80;1.45;;;;;;;;;;5115315;28;20066;-75
2023/06/03 02:53:11;;;;;;;2.90;1.45;;;;;;;;;;5115091;28;20020;-74
2023/06/03 02:55:36;;;;;;;2.10;1.38;;;;;;;;;;5114856;28;20023;-75
2023/06/03 02:58:02;;;;;;;3.53;1.50;;;;;;;;;;5115514;28;20027;-75
2023/06/03 03:00:27;;;;;;;2.63;0.95;;;;;;;;;;5114916;28;20099;-76
2023/06/03 03:02:52;;;;;;;3.67;1.45;;;;;;;;;;5115267;28;20095;-75
2023/06/03 03:05:18;;;;;;;3.00;1.38;;;;;;;;;;5115180;28;20080;-74
2023/06/03 03:07:44;;;;;;;5.10;1.98;;;;;;;;;;5114815;28;20491;-77
2023/06/03 03:10:09;;;;;;;1.40;1.17;;;;;;;;;;5115121;28;20090;-74
2023/06/03 03:12:36;;;;;;;1.88;1.33;;;;;;;;;;5115686;28;20044;-75
2023/06/03 03:15:01;;;;;;;2.90;1.50;;;;;;;;;;5114771;28;20370;-74
2023/06/03 03:17:26;;;;;;;3.15;1.83;;;;;;;;;;5115102;28;20024;-75
2023/06/03 03:19:52;;;;;;;8.50;1.75;;;;;;;;;;5114822;28;20456;-74
2023/06/03 03:22:17;;;;;;;4.15;1.70;;;;;;;;;;5096551;28;20027;-75
2023/06/03 03:24:42;;;;;;;3.15;1.50;;;;;;;;;;5096531;28;20451;-75
2023/06/03 03:27:08;;;;;;;3.75;1.40;;;;;;;;;;5114663;28;20076;-75
2023/06/03 03:29:33;;;;;;;4.72;1.42;;;;;;;;;;5115043;28;20019;-76
2023/06/03 03:32:07;;;;;;;3.95;1.48;;;;;;;;;;5114306;28;20392;-75
2023/06/03 03:34:32;;;;;;;5.53;1.55;;;;;;;;;;5114497;28;20047;-75
2023/06/03 03:36:58;;;;;;;1.98;1.38;;;;;;;;;;5096390;28;20047;-75
2023/06/03 03:39:23;;;;;;;3.75;1.55;;;;;;;;;;5116888;28;20035;-74
2023/06/03 03:41:49;;;;;;;3.92;1.85;;;;;;;;;;5115861;28;20380;-75
2023/06/03 03:44:14;;;;;;;2.10;1.55;;;;;;;;;;5114730;28;20077;-75
2023/06/03 03:46:56;;;;;;;3.90;1.40;;;;;;;;;;5114329;28;20428;-75
2023/06/03 03:49:26;;;;;;;3.85;1.58;;;;;;;;;;5114027;28;20036;-76
2023/06/03 03:51:52;;;;;;;2.78;1.10;;;;;;;;;;5114296;28;20024;-76
2023/06/03 03:54:21;;;;;;;2.65;1.42;;;;;;;;;;5095729;28;20020;-75
2023/06/03 03:56:46;;;;;;;14.18;2.13;;;;;;;;;;5113855;28;20022;-76
2023/06/03 03:59:15;;;;;;;5.03;1.50;;;;;;;;;;5114087;28;20047;-75
2023/06/03 04:01:43;;;;;;;5.03;1.50;;;;;;;;;;5113886;28;20081;-76
2023/06/03 04:04:10;;;;;;;6.47;1.50;;;;;;;;;;5114114;28;20024;-76
2023/06/03 04:06:36;;;;;;;2.90;1.48;;;;;;;;;;5114000;28;20063;-76
2023/06/03 04:09:03;;;;;;;3.53;1.60;;;;;;;;;;5094993;28;20358;-75
2023/06/03 04:11:29;;;;;;;6.70;1.27;;;;;;;;;;5114421;28;20011;-75
2023/06/03 04:13:55;;;;;;;5.63;2.13;;;;;;;;;;5113798;28;20016;-75
2023/06/03 04:16:42;;;;;;;3.28;1.55;;;;;;;;;;5095629;28;20019;-75
2023/06/03 04:19:11;;;;;;;6.38;1.67;;;;;;;;;;5113734;28;20016;-75
2023/06/03 04:21:37;;;;;;;4.13;1.60;;;;;;;;;;5113862;28;20090;-75
2023/06/03 04:24:04;;;;;;;3.92;1.30;;;;;;;;;;5114154;28;20361;-76
2023/06/03 04:26:29;;;;;;;3.42;1.90;;;;;;;;;;5113705;28;20468;-76
2023/06/03 04:28:54;;;;;;;3.20;1.77;;;;;;;;;;5095304;28;20043;-74
2023/06/03 04:31:19;;;;;;;3.75;1.50;;;;;;;;;;5113765;28;20087;-75
2023/06/03 04:33:45;;;;;;;3.80;1.77;;;;;;;;;;5113735;28;20128;-75
2023/06/03 04:36:10;;;;;;;4.82;1.67;;;;;;;;;;5113441;28;20012;-75
2023/06/03 04:38:36;;;;;;;2.05;1.45;;;;;;;;;;5113582;28;20023;-73
2023/06/03 04:41:01;;;;;;;2.40;1.30;;;;;;;;;;5113514;28;20061;-73
2023/06/03 04:43:27;;;;;;;5.47;1.73;;;;;;;;;;5113393;28;20457;-72
2023/06/03 04:45:54;;;;;;;5.20;1.38;;;;;;;;;;5113481;28;20016;-73
2023/06/03 04:48:22;;;;;;;2.35;1.15;;;;;;;;;;5113299;28;20078;-71
2023/06/03 04:50:47;;;;;;;1.92;1.23;;;;;;;;;;5112851;28;20441;-74
2023/06/03 04:53:13;;;;;;;3.53;1.25;;;;;;;;;;5113597;28;20024;-73
2023/06/03 04:55:43;;;;;;;4.30;1.45;;;;;;;;;;5113346;28;20356;-73
2023/06/03 04:58:09;;;;;;;2.30;1.67;;;;;;;;;;5113101;28;20020;-73
2023/06/03 05:00:34;;;;;;;3.80;1.75;;;;;;;;;;5113177;28;20023;-74
2023/06/03 05:03:03;;;;;;;7.43;2.65;;;;;;;;;;5113182;28;20019;-73
2023/06/03 05:05:29;;;;;;;3.38;1.25;;;;;;;;;;5113186;28;20020;-73
2023/06/03 05:07:54;;;;;;;3.72;1.48;;;;;;;;;;5094745;28;20019;-70
2023/06/03 05:10:20;;;;;;;5.00;1.60;;;;;;;;;;5113453;28;20015;-75
2023/06/03 05:12:45;;;;;;;4.72;1.85;;;;;;;;;;5112931;28;20449;-72
2023/06/03 05:15:11;;;;;;;2.85;1.17;;;;;;;;;;5113340;28;20028;-72
2023/06/03 05:17:39;;;;;;;5.07;1.42;;;;;;;;;;5112975;28;20080;-73
2023/06/03 05:20:06;;;;;;;2.85;1.60;;;;;;;;;;5097500;28;20159;-73
2023/06/03 05:22:31;;;;;;;5.43;1.33;;;;;;;;;;5117190;28;20027;-71
2023/06/03 05:24:56;;;;;;;2.53;1.20;;;;;;;;;;5116979;28;20023;-73
2023/06/03 05:27:21;;;;;;;5.93;2.10;;;;;;;;;;5117404;28;20026;-71
2023/06/03 05:29:47;;;;;;;2.33;1.20;;;;;;;;;;5098525;28;20011;-73
2023/06/03 05:32:12;;;;;;;2.88;1.60;;;;;;;;;;5116775;28;20011;-72
2023/06/03 05:34:37;;;;;;;3.25;1.40;;;;;;;;;;5116849;28;20016;-71
2023/06/03 05:37:03;;;;;;;5.73;1.20;;;;;;;;;;5116630;28;20110;-72
2023/06/03 05:39:28;;;;;;;2.75;1.23;;;;;;;;;;5116430;28;20273;-74
2023/06/03 05:41:53;;;;;;;3.40;1.30;;;;;;;;;;5116399;28;20026;-73
2023/06/03 05:44:18;;;;;;;3.58;1.63;;;;;;;;;;5116446;28;20020;-71
2023/06/03 05:46:44;;;;;;;4.83;1.50;;;;;;;;;;5116642;28;20095;-73
2023/06/03 05:49:09;;;;;;;2.53;1.30;;;;;;;;;;5116270;28;20652;-71
2023/06/03 05:51:34;;;;;;;3.10;1.20;;;;;;;;;;5115988;28;20099;-73
2023/06/03 05:54:00;;;;;;;2.97;1.70;;;;;;;;;;5114208;28;20019;-71
2023/06/03 05:56:26;;;;;;;2.17;1.00;;;;;;;;;;5113931;28;20034;-71
2023/06/03 05:58:51;;;;;;;2.35;0.90;;;;;;;;;;5114270;28;20027;-72
2023/06/03 06:01:16;;;;;;;4.20;1.10;;;;;;;;;;5113936;28;20373;-73
2023/06/03 06:03:41;;;;;;;2.57;1.10;;;;;;;;;;5114260;28;20276;-72
2023/06/03 06:06:07;;;;;;;3.43;1.30;;;;;;;;;;5114554;28;20261;-73
2023/06/03 06:08:32;;;;;;;4.20;1.10;;;;;;;;;;5115341;28;20368;-73
2023/06/03 06:10:57;;;;;;;3.73;1.20;;;;;;;;;;5116277;28;20642;-74
2023/06/03 06:13:22;;;;;;;1.63;1.03;;;;;;;;;;5116375;28;20457;-75
2023/06/03 06:16:01;;;;;;;1.87;1.00;;;;;;;;;;5116120;28;20606;-72
2023/06/03 06:18:26;;;;;;;1.60;0.93;;;;;;;;;;5116037;28;20129;-73
2023/06/03 06:20:51;;;;;;;4.40;1.00;;;;;;;;;;5097661;28;20051;-71
2023/06/03 06:23:17;;;;;;;3.63;1.23;;;;;;;;;;5115865;28;20038;-72
2023/06/03 06:25:52;;;;;;;6.97;1.13;;;;;;;;;;5115824;28;20618;-72
2023/06/03 06:28:17;;;;;;;3.55;1.00;;;;;;;;;;5115731;28;20015;-71
2023/06/03 06:30:43;;;;;;;2.17;0.93;;;;;;;;;;5114676;28;20597;-71
2023/06/03 06:33:09;;;;;;;5.80;1.50;;;;;;;;;;5115244;28;20016;-71
2023/06/03 06:35:34;;;;;;;2.72;0.93;;;;;;;;;;5115852;28;20099;-71
2023/06/03 06:37:59;;;;;;;2.20;0.82;;;;;;;;;;5115322;28;20034;-72
2023/06/03 06:40:28;;;;;;;2.78;0.80;;;;;;;;;;5115251;28;20031;-71
2023/06/03 06:42:54;;;;;;;2.92;0.70;;;;;;;;;;5115726;28;20027;-72
2023/06/03 06:45:27;;;;;;;4.83;1.10;;;;;;;;;;5115580;28;20046;-72
2023/06/03 06:48:09;;;;;;;4.20;0.77;;;;;;;;;;5115179;28;20019;-70
2023/06/03 06:50:37;;;;;;;3.90;1.20;;;;;;;;;;5115268;28;20029;-72
2023/06/03 06:53:03;;;;;;;1.02;0.80;;;;;;;;;;5115566;28;20020;-70
2023/06/03 06:55:34;;;;;;;2.67;0.80;;;;;;;;;;5115174;28;20444;-71
2023/06/03 06:58:00;;;;;;;4.07;0.80;;;;;;;;;;5115178;28;20032;-71
2023/06/03 07:00:27;;;;;;;1.43;0.70;;;;;;;;;;5114899;28;20023;-71
2023/06/03 07:02:53;;;;;;;2.65;1.20;;;;;;;;;;5115348;28;20323;-70
2023/06/03 07:05:18;;;;;;;2.43;0.50;;;;;;;;;;5114888;28;20320;-70
2023/06/03 07:07:43;;;;;;;1.37;0.40;;;;;;;;;;5115302;28;20023;-70
2023/06/03 07:10:08;;;;;;;2.43;0.77;;;;;;;;;;5115265;28;20015;-71
2023/06/03 07:12:36;;;;;;;2.05;0.70;;;;;;;;;;5114923;28;20011;-72
2023/06/03 07:15:01;;;;;;;1.88;0.65;;;;;;;;;;5114941;28;20369;-73
2023/06/03 07:17:26;;;;;;;3.80;1.23;;;;;;;;;;5114654;28;20016;-72
2023/06/03 07:19:52;;;;;;;0.73;0.60;;;;;;;;;;5096348;28;20451;-73
2023/06/03 07:22:17;;;;;;;2.07;0.80;;;;;;;;;;5114461;28;20091;-72
2023/06/03 07:24:44;;;;;;;1.30;0.70;;;;;;;;;;5114520;28;20011;-73
2023/06/03 07:27:15;;;;;;;1.17;0.80;;;;;;;;;;5114117;28;20369;-73
2023/06/03 07:29:40;;;;;;;2.17;0.70;;;;;;;;;;5114254;28;20015;-71
2023/06/03 07:32:07;;;;;;;0.57;0.50;;;;;;;;;;5096060;28;20022;-73
2023/06/03 07:34:33;;;;;;;2.33;0.60;;;;;;;;;;5113976;28;20330;-72
2023/06/03 07:37:00;;;;;;;2.05;0.80;;;;;;;;;;5113973;28;20011;-73
2023/06/03 07:39:25;;;;;;;0.93;0.70;;;;;;;;;;5095732;28;20023;-73
2023/06/03 07:41:51;;;;;;;0.50;0.50;;;;;;;;;;5113679;28;20110;-71
2023/06/03 07:44:19;;;;;;;0.93;0.55;;;;;;;;;;5113844;28;20044;-71
2023/06/03 07:46:45;;;;;;;1.88;0.52;;;;;;;;;;5113769;28;20102;-70
2023/06/03 07:49:14;;;;;;;1.73;0.88;;;;;;;;;;5113749;28;20096;-75
2023/06/03 07:51:47;;;;;;;0.50;0.50;;;;;;;;;;5113976;28;20519;-72
2023/06/03 07:54:12;;;;;;;0.70;0.55;;;;;;;;;;5113661;28;20012;-74
2023/06/03 07:56:38;;;;;;;2.45;0.40;;;;;;;;;;5095625;28;20077;-73
2023/06/03 07:59:04;;;;;;;1.77;0.95;;;;;;;;;;5113889;28;20020;-72
2023/06/03 08:01:30;;;;;;;0.50;0.50;;;;;;;;;;5113578;28;20040;-74
2023/06/03 08:03:55;;;;;;;3.17;0.40;;;;;;;;;;5113715;28;20027;-73
2023/06/03 08:06:26;;;;;;;6.25;1.13;;;;;;;;;;5113578;28;20026;-74
2023/06/03 08:08:52;;;;;;;;;;;;;;;;;;5113965;28;20024;-74
2023/06/03 08:11:18;;;;;;;1.30;0.80;;;;;;;;;;5113587;28;19903;-73
2023/06/03 08:13:43;;;;;;;0.30;0.30;;;;;;;;;;5113638;28;20465;-72
2023/06/03 08:16:10;;;;;;;4.32;0.57;;;;;;;;;;5113502;28;20095;-74
2023/06/03 08:18:50;;;;;;;0.77;0.70;;;;;;;;;;5113647;28;20453;-73
2023/06/03 08:21:16;;;;;;;1.42;0.43;;;;;;;;;;5113956;28;20022;-73
2023/06/03 08:23:42;;;;;;;4.00;1.23;;;;;;;;;;5095603;28;20414;-73
2023/06/03 08:26:08;;;;;;;1.33;0.60;;;;;;;;;;5113648;28;20048;-73
2023/06/03 08:28:33;;;;;;;2.60;0.60;;;;;;;;;;5113348;28;20133;-72
2023/06/03 08:30:59;;;;;;;2.00;0.50;;;;;;;;;;5113472;28;20008;-72
2023/06/03 08:33:24;;;;;;;1.03;0.60;;;;;;;;;;5113643;28;20064;-72
2023/06/03 08:35:50;;;;;;;1.83;0.55;;;;;;;;;;5113720;28;20263;-72
2023/06/03 08:38:16;;;;;;;3.50;0.70;;;;;;;;;;5113297;28;20102;-72
2023/06/03 08:40:46;;;;;;;1.55;0.57;;;;;;;;;;5113355;28;20027;-72
2023/06/03 08:43:11;;;;;;;3.20;0.68;;;;;;;;;;5113343;28;20019;-72
2023/06/03 08:45:44;;;;;;;0.98;0.80;;;;;;;;;;5113141;28;20418;-71
2023/06/03 08:48:16;;;;;;;1.75;0.70;;;;;;;;;;5113226;28;20055;-72
2023/06/03 08:50:47;;;;;;;2.42;1.00;;;;;;;;;;5113208;28;20020;-71
2023/06/03 08:53:13;;;;;;;5.47;0.88;;;;;;;;;;5113186;28;20519;-72
2023/06/03 08:55:39;;;;;;;1.30;0.73;;;;;;;;;;5098590;28;20108;-70
2023/06/03 08:58:19;;;;;;;3.17;0.77;;;;;;;;;;5117530;28;20081;-71
2023/06/03 09:00:46;;;;;;;2.13;0.77;;;;;;;;;;5117379;28;20536;-72
2023/06/03 09:03:12;;;;;;;1.67;1.20;;;;;;;;;;5117125;28;20107;-70
2023/06/03 09:05:37;;;;;;;2.28;1.00;;;;;;;;;;5117147;28;20107;-70
2023/06/03 09:08:03;;;;;;;2.13;0.77;;;;;;;;;;5117059;28;20058;-71
2023/06/03 09:10:30;;;;;;;1.65;0.80;;;;;;;;;;5117265;28;20037;-71
2023/06/03 09:12:57;;;;;;;3.63;0.85;;;;;;;;;;5117407;28;20089;-70
2023/06/03 09:15:22;;;;;;;1.27;0.60;;;;;;;;;;5117329;28;20060;-70
2023/06/03 09:17:48;;;;;;;1.33;0.80;;;;;;;;;;5117335;28;20349;-72
2023/06/03 09:20:13;;;;;;;1.53;0.70;;;;;;;;;;5117099;28;20428;-71
2023/06/03 09:22:40;;;;;;;4.03;1.25;;;;;;;;;;5116825;28;20020;-70
2023/06/03 09:25:06;;;;;;;1.42;0.70;;;;;;;;;;5117166;28;20015;-70
2023/06/03 09:27:31;;;;;;;4.00;0.93;;;;;;;;;;5116582;28;20023;-70
2023/06/03 09:29:56;;;;;;;2.72;0.90;;;;;;;;;;5116924;28;20037;-71
2023/06/03 09:32:22;;;;;;;3.40;1.08;;;;;;;;;;5116830;28;20478;-70
2023/06/03 09:34:48;;;;;;;2.33;0.88;;;;;;;;;;5098619;28;20456;-78
2023/06/03 09:37:14;;;;;;;1.33;0.63;;;;;;;;;;5116603;28;20098;-79
2023/06/03 09:39:40;;;;;;;0.98;0.90;;;;;;;;;;5116264;28;20054;-78
2023/06/03 09:42:05;;;;;;;3.70;1.00;;;;;;;;;;5116686;28;20008;-78
2023/06/03 09:44:39;;;;;;;1.30;0.90;;;;;;;;;;5116493;28;20464;-79
2023/06/03 09:47:04;;;;;;;4.32;0.85;;;;;;;;;;5098453;28;20419;-74
2023/06/03 09:49:30;;;;;;;2.72;1.10;;;;;;;;;;5116780;28;20053;-74
2023/06/03 09:51:55;;;;;;;0.88;0.80;;;;;;;;;;5116113;28;20024;-75
2023/06/03 09:54:24;;;;;;;2.28;1.05;;;;;;;;;;5097974;28;20073;-77
2023/06/03 09:56:50;;;;;;;1.83;1.00;;;;;;;;;;5097992;28;20528;-76
2023/06/03 09:59:16;;;;;;;4.80;1.20;;;;;;;;;;5097859;28;20058;-76
2023/06/03 10:01:42;;;;;;;4.97;1.25;;;;;;;;;;5116087;28;20072;-76
2023/06/03 10:04:07;;;;;;;3.53;1.00;;;;;;;;;;5115946;28;20461;-76
2023/06/03 10:06:35;;;;;;;4.13;1.00;;;;;;;;;;5097548;28;20020;-76
2023/06/03 10:09:16;;;;;;;3.08;1.00;;;;;;;;;;5115880;28;20052;-77
2023/06/03 10:11:46;;;;;;;3.00;0.90;;;;;;;;;;5097603;28;20008;-78
2023/06/03 10:14:11;;;;;;;2.58;0.90;;;;;;;;;;5113944;28;20533;-78
2023/06/03 10:16:36;;;;;;;6.07;1.10;;;;;;;;;;5095302;28;20046;-78
2023/06/03 10:19:03;;;;;;;4.13;1.00;;;;;;;;;;5114738;28;20045;-77
2023/06/03 10:21:29;;;;;;;5.55;0.80;;;;;;;;;;5114962;28;20034;-77
2023/06/03 10:24:14;;;;;;;2.28;1.00;;;;;;;;;;5114760;28;20039;-77
2023/06/03 10:26:44;;;;;;;1.27;0.90;;;;;;;;;;5114843;28;20040;-77
2023/06/03 10:29:10;;;;;;;1.60;1.50;;;;;;;;;;5097409;28;20024;-77
2023/06/03 10:31:35;;;;;;;2.42;1.10;;;;;;;;;;5114846;28;20187;-75
2023/06/03 10:34:02;;;;;;;4.70;1.30;;;;;;;;;;5115769;28;20417;-76
2023/06/03 10:36:30;;;;;;;1.00;0.88;;;;;;;;;;5115495;28;20422;-78
2023/06/03 10:39:01;;;;;;;3.55;1.20;;;;;;;;;;5115486;28;20027;-79
2023/06/03 10:41:35;;;;;;;2.53;1.20;;;;;;;;;;5097058;28;20078;-76
2023/06/03 10:44:01;;;;;;;3.60;1.35;;;;;;;;;;5115502;28;20027;-81
2023/06/03 10:46:28;;;;;;;2.58;0.95;;;;;;;;;;5115146;28;20047;-80
2023/06/03 10:48:53;;;;;;;3.97;0.93;;;;;;;;;;5097237;28;20540;-82
2023/06/03 10:51:43;;;;;;;4.25;1.25;;;;;;;;;;5080419;28;20039;-86
2023/06/03 10:54:26;;;;;;;1.90;1.13;;;;;;;;;;5113568;28;20089;-81
2023/06/03 10:56:59;;;;;;;3.10;0.93;;;;;;;;;;5114541;28;20402;-80
2023/06/03 10:59:28;;;;;;;2.67;1.20;;;;;;;;;;5096964;28;20452;-81
2023/06/03 11:04:48;;;;;;;1.70;1.30;;;;;;;;;;5114256;28;20430;-82
2023/06/03 11:07:31;;;;;;;2.27;1.00;;;;;;;;;;5114488;28;20495;-81
2023/06/03 11:09:58;;;;;;;2.80;1.00;;;;;;;;;;5114527;28;20265;-80
2023/06/03 11:12:45;;;;;;;1.35;1.13;;;;;;;;;;5114706;28;20602;-78
2023/06/03 11:15:13;;;;;;;1.63;1.00;;;;;;;;;;5095751;28;20028;-78
2023/06/03 11:17:38;;;;;;;4.03;1.10;;;;;;;;;;5095753;28;20031;-81
2023/06/03 11:20:03;;;;;;;4.63;1.00;;;;;;;;;;5111909;28;20076;-78
2023/06/03 11:22:29;;;;;;;4.85;0.85;;;;;;;;;;5112244;28;20467;-79
2023/06/03 11:25:01;;;;;;;1.25;0.90;;;;;;;;;;5112808;28;20048;-80
2023/06/03 11:27:26;;;;;;;;;;;;;;;;;;5113187;28;20094;-79
2023/06/03 11:29:51;;;;;;;1.40;0.80;;;;;;;;;;5112379;28;19995;-78
2023/06/03 11:32:17;;;;;;;1.67;0.85;;;;;;;;;;5112258;28;20023;-79
2023/06/03 11:34:43;;;;;;;7.53;1.02;;;;;;;;;;5112172;28;20528;-79
2023/06/03 11:37:11;;;;;;;1.98;1.05;;;;;;;;;;5094274;28;20050;-78
2023/06/03 11:39:55;;;;;;;2.58;0.90;;;;;;;;;;5112597;28;20012;-79
2023/06/03 11:42:21;;;;;;;1.42;1.02;;;;;;;;;;5114119;28;20358;-79
2023/06/03 11:44:46;;;;;;;3.17;0.90;;;;;;;;;;5114139;28;20019;-79
2023/06/03 11:47:11;;;;;;;2.97;1.10;;;;;;;;;;5114458;28;20019;-79
2023/06/03 11:49:38;;;;;;;3.15;1.00;;;;;;;;;;5078903;28;20020;-78
2023/06/03 11:52:03;;;;;;;3.08;0.77;;;;;;;;;;5095987;28;20459;-78
2023/06/03 11:54:29;;;;;;;7.38;1.50;;;;;;;;;;5114123;28;20137;-78
2023/06/03 11:56:55;;;;;;;1.30;0.80;;;;;;;;;;5113974;28;20380;-80
2023/06/03 11:59:48;;;;;;;2.55;1.23;;;;;;;;;;5114130;28;20409;-79
2023/06/03 12:02:13;;;;;;;5.15;0.95;;;;;;;;;;5110346;28;20058;-79
2023/06/03 12:04:38;;;;;;;3.72;1.02;;;;;;;;;;5113948;28;20027;-80
2023/06/03 12:07:11;;;;;;;2.67;1.05;;;;;;;;;;5113737;28;20399;-79
2023/06/03 12:09:36;;;;;;;2.33;1.05;;;;;;;;;;5113485;28;20016;-79
2023/06/03 12:12:06;;;;;;;1.88;0.60;;;;;;;;;;5113821;28;20030;-79
2023/06/03 12:14:32;;;;;;;1.05;0.85;;;;;;;;;;5113958;28;20024;-79
2023/06/03 12:17:07;;;;;;;1.48;0.70;;;;;;;;;;5113869;28;20015;-78
2023/06/03 12:19:35;;;;;;;4.45;0.85;;;;;;;;;;5113608;28;20023;-78
2023/06/03 12:22:00;;;;;;;3.33;1.10;;;;;;;;;;5113393;28;20047;-80
2023/06/03 12:24:28;;;;;;;2.67;0.93;;;;;;;;;;5113542;28;20031;-78
2023/06/03 12:26:54;;;;;;;3.30;0.73;;;;;;;;;;5113579;28;20286;-79
2023/06/03 12:29:20;;;;;;;2.47;0.82;;;;;;;;;;5112807;28;20035;-79
2023/06/03 12:31:55;;;;;;;1.33;1.02;;;;;;;;;;5113682;28;20107;-78
2023/06/03 12:34:40;;;;;;;2.92;1.10;;;;;;;;;;5113569;28;20031;-79
2023/06/03 12:37:06;;;;;;;3.85;0.85;;;;;;;;;;5113777;28;20032;-79
2023/06/03 12:39:58;;;;;;;1.83;0.68;;;;;;;;;;5114082;28;20034;-79
2023/06/03 12:42:34;;;;;;;2.85;1.08;;;;;;;;;;5109079;28;20127;-79
2023/06/03 12:44:59;;;;;;;2.50;0.80;;;;;;;;;;5094754;28;20024;-78
2023/06/03 12:47:24;;;;;;;3.17;1.10;;;;;;;;;;5113075;28;20524;-79
2023/06/03 12:50:06;;;;;;;2.67;0.95;;;;;;;;;;5094895;28;20311;-79
2023/06/03 12:52:34;;;;;;;3.95;0.73;;;;;;;;;;5113614;28;20020;-78
2023/06/03 12:55:00;;;;;;;9.80;4.05;;;;;;;;;;5113030;28;20020;-79
2023/06/03 12:57:25;;;;;;;1.85;1.10;;;;;;;;;;5113213;28;20376;-79
2023/06/03 13:00:00;;;;;;;1.63;0.90;;;;;;;;;;5113595;28;20032;-78
2023/06/03 13:02:25;;;;;;;2.33;0.90;;;;;;;;;;5091381;28;20302;-79
2023/06/03 13:04:51;;;;;;;1.85;0.60;;;;;;;;;;5092839;28;20024;-77
2023/06/03 13:07:17;;;;;;;3.30;1.00;;;;;;;;;;5092741;28;20052;-79
2023/06/03 13:09:42;;;;;;;2.88;1.02;;;;;;;;;;5092802;28;20031;-79
2023/06/03 13:12:07;;;;;;;2.47;0.70;;;;;;;;;;5092946;28;20099;-79
2023/06/03 13:14:33;;;;;;;2.70;0.80;;;;;;;;;;5093005;28;20024;-79
2023/06/03 13:16:58;;;;;;;2.73;1.00;;;;;;;;;;5093055;28;20437;-79
2023/06/03 13:19:23;;;;;;;4.03;1.10;;;;;;;;;;5091705;28;20361;-79
2023/06/03 13:21:49;;;;;;;1.42;0.75;;;;;;;;;;5093182;28;20327;-79
2023/06/03 13:24:14;;;;;;;3.95;1.00;;;;;;;;;;5092718;28;20060;-79
2023/06/03 13:26:39;;;;;;;0.80;0.70;;;;;;;;;;5092729;28;20020;-78
2023/06/03 13:29:05;;;;;;;2.60;0.77;;;;;;;;;;5092760;28;20074;-79
2023/06/03 13:31:30;;;;;;;2.10;0.80;;;;;;;;;;5091193;28;20457;-78
2023/06/03 13:33:56;;;;;;;2.15;1.05;;;;;;;;;;5092880;28;20012;-78
2023/06/03 13:36:21;;;;;;;2.30;0.80;;;;;;;;;;5092648;28;20012;-79
2023/06/03 13:38:48;;;;;;;1.53;1.20;;;;;;;;;;5092396;28;20316;-79
2023/06/03 13:41:13;;;;;;;4.13;1.00;;;;;;;;;;5095256;28;20277;-79
2023/06/03 13:43:38;;;;;;;3.75;0.95;;;;;;;;;;5096409;28;20029;-78
2023/06/03 13:46:04;;;;;;;1.47;0.60;;;;;;;;;;5094659;28;20016;-79
2023/06/03 13:48:29;;;;;;;4.65;1.13;;;;;;;;;;5095622;28;20352;-79
2023/06/03 13:50:55;;;;;;;3.77;1.10;;;;;;;;;;5095993;28;20028;-79
2023/06/03 13:53:20;;;;;;;1.83;0.82;;;;;;;;;;5095830;28;20262;-79
2023/06/03 13:55:46;;;;;;;2.00;1.07;;;;;;;;;;5094341;28;20019;-80
2023/06/03 13:58:12;;;;;;;1.17;0.63;;;;;;;;;;5095930;28;20274;-78
2023/06/03 14:00:37;;;;;;;2.45;0.98;;;;;;;;;;5095579;28;20024;-79
2023/06/03 14:03:04;;;;;;;3.60;1.87;;;;;;;;;;5113891;28;20091;-79
2023/06/03 14:05:29;;;;;;;3.75;2.13;;;;;;;;;;5116200;28;20265;-79
2023/06/03 14:07:55;;;;;;;1.40;0.73;;;;;;;;;;5116176;28;20027;-79
2023/06/03 14:10:20;;;;;;;2.47;1.73;;;;;;;;;;5115857;28;20479;-79
2023/06/03 14:12:45;;;;;;;11.65;4.75;;;;;;;;;;5116692;28;20257;-78
2023/06/03 14:15:10;;;;;;;2.35;1.20;;;;;;;;;;5116219;28;20019;-79
2023/06/03 14:17:36;;;;;;;4.87;1.27;;;;;;;;;;5115733;28;20090;-78
2023/06/03 14:20:02;;;;;;;3.90;0.90;;;;;;;;;;5115866;28;20599;-79
2023/06/03 14:22:29;;;;;;;4.75;1.98;;;;;;;;;;5115792;28;20026;-78
2023/06/03 14:24:54;;;;;;;2.40;0.90;;;;;;;;;;5115779;28;20019;-79
2023/06/03 14:27:20;;;;;;;7.13;2.37;;;;;;;;;;5115927;28;20016;-79
2023/06/03 14:29:45;;;;;;;1.25;0.80;;;;;;;;;;5116077;28;20277;-78
2023/06/03 14:32:10;;;;;;;2.42;1.00;;;;;;;;;;5115534;28;20020;-79
2023/06/03 14:34:36;;;;;;;3.28;1.10;;;;;;;;;;5115742;28;20068;-79
2023/06/03 14:37:01;;;;;;;2.13;1.13;;;;;;;;;;5097667;28;20363;-79
2023/06/03 14:39:26;;;;;;;2.63;1.00;;;;;;;;;;5115237;28;20047;-78
2023/06/03 14:41:52;;;;;;;2.77;1.07;;;;;;;;;;5115578;28;20069;-77
2023/06/03 14:44:17;;;;;;;2.13;0.90;;;;;;;;;;5115255;28;20260;-78
2023/06/03 14:46:42;;;;;;;5.23;0.90;;;;;;;;;;5115758;28;20031;-78